sensor_id;sensor_type;location;lat;lon;timestamp;P1;durP1;ratioP1;P2;durP2;ratioP2
39750;SDS011;37579;51.074;17.004;2024-01-06T00:02:00;7.85;;;5.03;;
39750;SDS011;37579;51.074;17.004;2024-01-06T00:04:25;7.80;;;5.22;;
39750;SDS011;37579;51.074;17.004;2024-01-06T00:06:51;6.10;;;4.53;;
39750;SDS011;37579;51.074;17.004;2024-01-06T00:09:17;8.13;;;4.65;;
39750;SDS011;37579;51.074;17.004;2024-01-06T00:11:43;7.28;;;4.72;;
39750;SDS011;37579;51.074;17.004;2024-01-06T00:14:08;7.07;;;4.50;;
39750;SDS011;37579;51.074;17.004;2024-01-06T00:16:34;7.32;;;4.90;;
39750;SDS011;37579;51.074;17.004;2024-01-06T00:19:00;6.55;;;4.63;;
39750;SDS011;37579;51.074;17.004;2024-01-06T00:21:26;7.72;;;4.65;;
39750;SDS011;37579;51.074;17.004;2024-01-06T00:23:51;7.60;;;5.00;;
39750;SDS011;37579;51.074;17.004;2024-01-06T00:26:17;7.53;;;5.03;;
39750;SDS011;37579;51.074;17.004;2024-01-06T00:28:43;8.68;;;5.10;;
39750;SDS011;37579;51.074;17.004;2024-01-06T00:31:09;8.43;;;4.60;;
39750;SDS011;37579;51.074;17.004;2024-01-06T00:33:34;6.53;;;4.65;;
39750;SDS011;37579;51.074;17.004;2024-01-06T00:36:00;8.02;;;4.93;;
39750;SDS011;37579;51.074;17.004;2024-01-06T00:38:26;6.22;;;4.50;;
39750;SDS011;37579;51.074;17.004;2024-01-06T00:40:52;7.72;;;5.13;;
39750;SDS011;37579;51.074;17.004;2024-01-06T00:43:17;7.00;;;4.82;;
39750;SDS011;37579;51.074;17.004;2024-01-06T00:45:43;7.13;;;5.13;;
39750;SDS011;37579;51.074;17.004;2024-01-06T00:48:09;8.48;;;5.20;;
39750;SDS011;37579;51.074;17.004;2024-01-06T00:50:35;6.68;;;4.70;;
39750;SDS011;37579;51.074;17.004;2024-01-06T00:53:00;7.45;;;5.00;;
39750;SDS011;37579;51.074;17.004;2024-01-06T00:55:26;6.78;;;4.82;;
39750;SDS011;37579;51.074;17.004;2024-01-06T00:57:52;9.13;;;5.13;;
39750;SDS011;37579;51.074;17.004;2024-01-06T01:00:18;7.05;;;5.05;;
39750;SDS011;37579;51.074;17.004;2024-01-06T01:02:44;7.47;;;5.20;;
39750;SDS011;37579;51.074;17.004;2024-01-06T01:05:09;7.25;;;4.80;;
39750;SDS011;37579;51.074;17.004;2024-01-06T01:07:35;7.85;;;4.80;;
39750;SDS011;37579;51.074;17.004;2024-01-06T01:10:01;7.95;;;5.00;;
39750;SDS011;37579;51.074;17.004;2024-01-06T01:12:27;6.60;;;4.75;;
39750;SDS011;37579;51.074;17.004;2024-01-06T01:14:53;7.25;;;4.85;;
39750;SDS011;37579;51.074;17.004;2024-01-06T01:17:19;7.68;;;5.00;;
39750;SDS011;37579;51.074;17.004;2024-01-06T01:19:45;7.18;;;5.30;;
39750;SDS011;37579;51.074;17.004;2024-01-06T01:22:11;8.02;;;5.25;;
39750;SDS011;37579;51.074;17.004;2024-01-06T01:24:37;7.97;;;5.38;;
39750;SDS011;37579;51.074;17.004;2024-01-06T01:27:03;9.15;;;5.55;;
39750;SDS011;37579;51.074;17.004;2024-01-06T01:29:29;7.60;;;4.80;;
39750;SDS011;37579;51.074;17.004;2024-01-06T01:31:54;6.32;;;4.60;;
39750;SDS011;37579;51.074;17.004;2024-01-06T01:34:20;9.10;;;4.70;;
39750;SDS011;37579;51.074;17.004;2024-01-06T01:36:46;7.60;;;4.85;;
39750;SDS011;37579;51.074;17.004;2024-01-06T01:39:12;7.55;;;5.18;;
39750;SDS011;37579;51.074;17.004;2024-01-06T01:41:39;6.53;;;4.80;;
39750;SDS011;37579;51.074;17.004;2024-01-06T01:44:05;7.10;;;4.78;;
39750;SDS011;37579;51.074;17.004;2024-01-06T01:46:31;7.80;;;4.57;;
39750;SDS011;37579;51.074;17.004;2024-01-06T01:48:58;7.03;;;4.90;;
39750;SDS011;37579;51.074;17.004;2024-01-06T01:51:29;7.18;;;4.97;;
39750;SDS011;37579;51.074;17.004;2024-01-06T01:53:57;8.32;;;5.35;;
39750;SDS011;37579;51.074;17.004;2024-01-06T01:56:24;6.55;;;4.90;;
39750;SDS011;37579;51.074;17.004;2024-01-06T01:58:51;6.93;;;5.20;;
39750;SDS011;37579;51.074;17.004;2024-01-06T02:01:17;6.50;;;4.90;;
39750;SDS011;37579;51.074;17.004;2024-01-06T02:03:43;7.22;;;4.68;;
39750;SDS011;37579;51.074;17.004;2024-01-06T02:06:09;8.77;;;5.68;;
39750;SDS011;37579;51.074;17.004;2024-01-06T02:08:35;7.63;;;5.00;;
39750;SDS011;37579;51.074;17.004;2024-01-06T02:11:01;6.65;;;4.78;;
39750;SDS011;37579;51.074;17.004;2024-01-06T02:13:36;6.93;;;4.85;;
39750;SDS011;37579;51.074;17.004;2024-01-06T02:16:03;5.85;;;4.43;;
39750;SDS011;37579;51.074;17.004;2024-01-06T02:18:30;8.48;;;5.38;;
39750;SDS011;37579;51.074;17.004;2024-01-06T02:21:00;7.20;;;4.72;;
39750;SDS011;37579;51.074;17.004;2024-01-06T02:23:27;7.00;;;5.20;;
39750;SDS011;37579;51.074;17.004;2024-01-06T02:25:54;7.38;;;4.93;;
39750;SDS011;37579;51.074;17.004;2024-01-06T02:28:20;7.47;;;5.05;;
39750;SDS011;37579;51.074;17.004;2024-01-06T02:30:46;6.35;;;4.63;;
39750;SDS011;37579;51.074;17.004;2024-01-06T02:33:12;7.35;;;4.93;;
39750;SDS011;37579;51.074;17.004;2024-01-06T02:35:37;7.40;;;5.43;;
39750;SDS011;37579;51.074;17.004;2024-01-06T02:38:05;7.32;;;5.20;;
39750;SDS011;37579;51.074;17.004;2024-01-06T02:40:31;6.00;;;4.57;;
39750;SDS011;37579;51.074;17.004;2024-01-06T02:42:57;6.28;;;4.65;;
39750;SDS011;37579;51.074;17.004;2024-01-06T02:45:24;7.10;;;4.95;;
39750;SDS011;37579;51.074;17.004;2024-01-06T02:47:50;7.75;;;4.85;;
39750;SDS011;37579;51.074;17.004;2024-01-06T02:50:16;7.68;;;4.90;;
39750;SDS011;37579;51.074;17.004;2024-01-06T02:52:42;7.40;;;5.18;;
39750;SDS011;37579;51.074;17.004;2024-01-06T02:55:09;7.30;;;4.90;;
39750;SDS011;37579;51.074;17.004;2024-01-06T02:57:35;7.95;;;4.95;;
39750;SDS011;37579;51.074;17.004;2024-01-06T03:00:02;7.28;;;5.00;;
39750;SDS011;37579;51.074;17.004;2024-01-06T03:02:28;6.47;;;4.47;;
39750;SDS011;37579;51.074;17.004;2024-01-06T03:04:54;7.07;;;5.18;;
39750;SDS011;37579;51.074;17.004;2024-01-06T03:07:20;7.15;;;5.20;;
39750;SDS011;37579;51.074;17.004;2024-01-06T03:09:46;7.93;;;5.25;;
39750;SDS011;37579;51.074;17.004;2024-01-06T03:12:12;7.40;;;5.07;;
39750;SDS011;37579;51.074;17.004;2024-01-06T03:14:38;7.20;;;4.60;;
39750;SDS011;37579;51.074;17.004;2024-01-06T03:17:03;8.13;;;5.32;;
39750;SDS011;37579;51.074;17.004;2024-01-06T03:19:30;7.05;;;4.85;;
39750;SDS011;37579;51.074;17.004;2024-01-06T03:21:56;8.23;;;5.20;;
39750;SDS011;37579;51.074;17.004;2024-01-06T03:24:22;8.55;;;5.38;;
39750;SDS011;37579;51.074;17.004;2024-01-06T03:26:49;6.82;;;5.07;;
39750;SDS011;37579;51.074;17.004;2024-01-06T03:29:15;6.90;;;4.82;;
39750;SDS011;37579;51.074;17.004;2024-01-06T03:31:44;7.25;;;5.25;;
39750;SDS011;37579;51.074;17.004;2024-01-06T03:34:10;7.53;;;4.78;;
39750;SDS011;37579;51.074;17.004;2024-01-06T03:36:39;8.27;;;5.07;;
39750;SDS011;37579;51.074;17.004;2024-01-06T03:39:05;7.38;;;5.70;;
39750;SDS011;37579;51.074;17.004;2024-01-06T03:41:32;6.78;;;5.03;;
39750;SDS011;37579;51.074;17.004;2024-01-06T03:43:57;7.22;;;5.10;;
39750;SDS011;37579;51.074;17.004;2024-01-06T03:46:23;7.15;;;5.07;;
39750;SDS011;37579;51.074;17.004;2024-01-06T03:48:49;6.78;;;4.95;;
39750;SDS011;37579;51.074;17.004;2024-01-06T03:51:15;7.15;;;5.13;;
39750;SDS011;37579;51.074;17.004;2024-01-06T03:53:41;7.00;;;4.70;;
39750;SDS011;37579;51.074;17.004;2024-01-06T03:56:07;7.43;;;5.07;;
39750;SDS011;37579;51.074;17.004;2024-01-06T03:58:33;7.60;;;4.80;;
39750;SDS011;37579;51.074;17.004;2024-01-06T04:00:59;7.30;;;4.93;;
39750;SDS011;37579;51.074;17.004;2024-01-06T04:03:24;7.25;;;5.45;;
39750;SDS011;37579;51.074;17.004;2024-01-06T04:05:50;7.18;;;5.07;;
39750;SDS011;37579;51.074;17.004;2024-01-06T04:08:16;6.45;;;4.45;;
39750;SDS011;37579;51.074;17.004;2024-01-06T04:10:43;7.25;;;5.15;;
39750;SDS011;37579;51.074;17.004;2024-01-06T04:13:09;7.45;;;5.07;;
39750;SDS011;37579;51.074;17.004;2024-01-06T04:15:36;6.88;;;4.53;;
39750;SDS011;37579;51.074;17.004;2024-01-06T04:18:02;6.97;;;5.10;;
39750;SDS011;37579;51.074;17.004;2024-01-06T04:20:29;6.90;;;5.03;;
39750;SDS011;37579;51.074;17.004;2024-01-06T04:22:55;6.35;;;4.70;;
39750;SDS011;37579;51.074;17.004;2024-01-06T04:25:21;7.50;;;5.18;;
39750;SDS011;37579;51.074;17.004;2024-01-06T04:27:47;7.25;;;4.88;;
39750;SDS011;37579;51.074;17.004;2024-01-06T04:30:14;9.35;;;5.18;;
39750;SDS011;37579;51.074;17.004;2024-01-06T04:32:40;7.07;;;4.75;;
39750;SDS011;37579;51.074;17.004;2024-01-06T04:35:06;6.60;;;5.22;;
39750;SDS011;37579;51.074;17.004;2024-01-06T04:37:32;6.55;;;4.90;;
39750;SDS011;37579;51.074;17.004;2024-01-06T04:39:58;6.97;;;5.25;;
39750;SDS011;37579;51.074;17.004;2024-01-06T04:42:24;7.07;;;4.78;;
39750;SDS011;37579;51.074;17.004;2024-01-06T04:44:50;7.68;;;5.38;;
39750;SDS011;37579;51.074;17.004;2024-01-06T04:47:16;8.10;;;5.30;;
39750;SDS011;37579;51.074;17.004;2024-01-06T04:49:42;7.82;;;5.10;;
39750;SDS011;37579;51.074;17.004;2024-01-06T04:52:09;6.72;;;5.10;;
39750;SDS011;37579;51.074;17.004;2024-01-06T04:54:35;7.03;;;4.93;;
39750;SDS011;37579;51.074;17.004;2024-01-06T04:57:01;6.25;;;4.53;;
39750;SDS011;37579;51.074;17.004;2024-01-06T04:59:26;6.80;;;5.18;;
39750;SDS011;37579;51.074;17.004;2024-01-06T05:01:52;7.80;;;5.28;;
39750;SDS011;37579;51.074;17.004;2024-01-06T05:04:19;5.80;;;4.65;;
39750;SDS011;37579;51.074;17.004;2024-01-06T05:06:45;7.72;;;5.07;;
39750;SDS011;37579;51.074;17.004;2024-01-06T05:09:11;6.75;;;5.18;;
39750;SDS011;37579;51.074;17.004;2024-01-06T05:11:37;6.65;;;4.72;;
39750;SDS011;37579;51.074;17.004;2024-01-06T05:14:02;7.90;;;5.32;;
39750;SDS011;37579;51.074;17.004;2024-01-06T05:16:28;6.90;;;5.15;;
39750;SDS011;37579;51.074;17.004;2024-01-06T05:18:54;6.82;;;5.38;;
39750;SDS011;37579;51.074;17.004;2024-01-06T05:21:20;7.78;;;5.13;;
39750;SDS011;37579;51.074;17.004;2024-01-06T05:23:45;7.00;;;5.07;;
39750;SDS011;37579;51.074;17.004;2024-01-06T05:26:11;7.10;;;5.07;;
39750;SDS011;37579;51.074;17.004;2024-01-06T05:28:39;6.55;;;4.60;;
39750;SDS011;37579;51.074;17.004;2024-01-06T05:31:05;5.68;;;4.60;;
39750;SDS011;37579;51.074;17.004;2024-01-06T05:33:31;6.68;;;4.70;;
39750;SDS011;37579;51.074;17.004;2024-01-06T05:35:57;6.30;;;4.93;;
39750;SDS011;37579;51.074;17.004;2024-01-06T05:38:23;7.60;;;5.28;;
39750;SDS011;37579;51.074;17.004;2024-01-06T05:40:48;5.80;;;4.68;;
39750;SDS011;37579;51.074;17.004;2024-01-06T05:43:14;7.05;;;4.80;;
39750;SDS011;37579;51.074;17.004;2024-01-06T05:45:40;6.72;;;4.72;;
39750;SDS011;37579;51.074;17.004;2024-01-06T05:48:10;7.20;;;4.93;;
39750;SDS011;37579;51.074;17.004;2024-01-06T05:50:39;6.97;;;4.95;;
39750;SDS011;37579;51.074;17.004;2024-01-06T05:53:06;6.18;;;4.60;;
39750;SDS011;37579;51.074;17.004;2024-01-06T05:55:32;6.20;;;4.93;;
39750;SDS011;37579;51.074;17.004;2024-01-06T05:57:58;5.53;;;4.45;;
39750;SDS011;37579;51.074;17.004;2024-01-06T06:00:24;6.88;;;4.80;;
39750;SDS011;37579;51.074;17.004;2024-01-06T06:02:49;6.57;;;4.82;;
39750;SDS011;37579;51.074;17.004;2024-01-06T06:05:15;6.22;;;4.68;;
39750;SDS011;37579;51.074;17.004;2024-01-06T06:07:41;7.40;;;5.20;;
39750;SDS011;37579;51.074;17.004;2024-01-06T06:10:08;6.63;;;4.97;;
39750;SDS011;37579;51.074;17.004;2024-01-06T06:12:35;8.07;;;5.60;;
39750;SDS011;37579;51.074;17.004;2024-01-06T06:15:02;6.55;;;4.88;;
39750;SDS011;37579;51.074;17.004;2024-01-06T06:17:32;5.68;;;4.78;;
39750;SDS011;37579;51.074;17.004;2024-01-06T06:19:58;7.30;;;5.05;;
39750;SDS011;37579;51.074;17.004;2024-01-06T06:22:25;7.13;;;5.20;;
39750;SDS011;37579;51.074;17.004;2024-01-06T06:24:57;5.97;;;4.57;;
39750;SDS011;37579;51.074;17.004;2024-01-06T06:27:24;5.90;;;4.47;;
39750;SDS011;37579;51.074;17.004;2024-01-06T06:29:50;6.82;;;4.82;;
39750;SDS011;37579;51.074;17.004;2024-01-06T06:32:15;7.28;;;4.90;;
39750;SDS011;37579;51.074;17.004;2024-01-06T06:34:42;6.72;;;4.80;;
39750;SDS011;37579;51.074;17.004;2024-01-06T06:37:08;7.22;;;4.75;;
39750;SDS011;37579;51.074;17.004;2024-01-06T06:39:33;5.90;;;4.50;;
39750;SDS011;37579;51.074;17.004;2024-01-06T06:42:00;6.47;;;5.05;;
39750;SDS011;37579;51.074;17.004;2024-01-06T06:44:27;6.05;;;4.55;;
39750;SDS011;37579;51.074;17.004;2024-01-06T06:46:52;6.97;;;4.63;;
39750;SDS011;37579;51.074;17.004;2024-01-06T06:49:18;7.18;;;5.28;;
39750;SDS011;37579;51.074;17.004;2024-01-06T06:51:44;6.07;;;4.90;;
39750;SDS011;37579;51.074;17.004;2024-01-06T06:54:13;5.88;;;4.70;;
39750;SDS011;37579;51.074;17.004;2024-01-06T06:56:41;6.18;;;4.90;;
39750;SDS011;37579;51.074;17.004;2024-01-06T06:59:07;6.20;;;4.43;;
39750;SDS011;37579;51.074;17.004;2024-01-06T07:01:33;6.70;;;4.80;;
39750;SDS011;37579;51.074;17.004;2024-01-06T07:03:59;6.35;;;4.70;;
39750;SDS011;37579;51.074;17.004;2024-01-06T07:06:25;5.93;;;4.95;;
39750;SDS011;37579;51.074;17.004;2024-01-06T07:08:50;5.82;;;4.28;;
39750;SDS011;37579;51.074;17.004;2024-01-06T07:11:16;5.68;;;4.53;;
39750;SDS011;37579;51.074;17.004;2024-01-06T07:13:44;6.47;;;4.63;;
39750;SDS011;37579;51.074;17.004;2024-01-06T07:16:09;6.25;;;4.63;;
39750;SDS011;37579;51.074;17.004;2024-01-06T07:18:36;5.50;;;4.28;;
39750;SDS011;37579;51.074;17.004;2024-01-06T07:21:06;7.55;;;4.78;;
39750;SDS011;37579;51.074;17.004;2024-01-06T07:23:32;6.30;;;4.70;;
39750;SDS011;37579;51.074;17.004;2024-01-06T07:25:58;7.07;;;4.60;;
39750;SDS011;37579;51.074;17.004;2024-01-06T07:28:23;5.60;;;4.65;;
39750;SDS011;37579;51.074;17.004;2024-01-06T07:30:49;6.35;;;4.53;;
39750;SDS011;37579;51.074;17.004;2024-01-06T07:33:15;5.57;;;4.45;;
39750;SDS011;37579;51.074;17.004;2024-01-06T07:35:41;6.75;;;4.78;;
39750;SDS011;37579;51.074;17.004;2024-01-06T07:38:11;7.68;;;4.85;;
39750;SDS011;37579;51.074;17.004;2024-01-06T07:40:38;4.70;;;3.92;;
39750;SDS011;37579;51.074;17.004;2024-01-06T07:43:04;6.95;;;4.53;;
39750;SDS011;37579;51.074;17.004;2024-01-06T07:45:30;5.80;;;4.80;;
39750;SDS011;37579;51.074;17.004;2024-01-06T07:47:57;7.35;;;4.45;;
39750;SDS011;37579;51.074;17.004;2024-01-06T07:50:26;6.75;;;4.88;;
39750;SDS011;37579;51.074;17.004;2024-01-06T07:52:53;5.90;;;4.32;;
39750;SDS011;37579;51.074;17.004;2024-01-06T07:55:19;6.15;;;4.68;;
39750;SDS011;37579;51.074;17.004;2024-01-06T07:57:45;6.85;;;4.65;;
39750;SDS011;37579;51.074;17.004;2024-01-06T08:00:11;7.32;;;4.70;;
39750;SDS011;37579;51.074;17.004;2024-01-06T08:02:41;6.22;;;4.25;;
39750;SDS011;37579;51.074;17.004;2024-01-06T08:05:07;6.28;;;4.60;;
39750;SDS011;37579;51.074;17.004;2024-01-06T08:07:33;5.90;;;4.22;;
39750;SDS011;37579;51.074;17.004;2024-01-06T08:09:59;6.93;;;4.78;;
39750;SDS011;37579;51.074;17.004;2024-01-06T08:12:25;6.18;;;4.40;;
39750;SDS011;37579;51.074;17.004;2024-01-06T08:14:51;5.53;;;4.78;;
39750;SDS011;37579;51.074;17.004;2024-01-06T08:17:17;5.25;;;4.15;;
39750;SDS011;37579;51.074;17.004;2024-01-06T08:19:43;5.15;;;4.22;;
39750;SDS011;37579;51.074;17.004;2024-01-06T08:22:08;5.85;;;4.43;;
39750;SDS011;37579;51.074;17.004;2024-01-06T08:24:34;5.70;;;4.32;;
39750;SDS011;37579;51.074;17.004;2024-01-06T08:27:00;8.65;;;4.63;;
39750;SDS011;37579;51.074;17.004;2024-01-06T08:29:26;5.85;;;4.57;;
39750;SDS011;37579;51.074;17.004;2024-01-06T08:31:51;5.60;;;4.50;;
39750;SDS011;37579;51.074;17.004;2024-01-06T08:34:19;6.22;;;4.45;;
39750;SDS011;37579;51.074;17.004;2024-01-06T08:36:45;6.18;;;4.45;;
39750;SDS011;37579;51.074;17.004;2024-01-06T08:39:12;6.00;;;4.38;;
39750;SDS011;37579;51.074;17.004;2024-01-06T08:41:38;6.18;;;4.35;;
39750;SDS011;37579;51.074;17.004;2024-01-06T08:44:04;5.68;;;4.63;;
39750;SDS011;37579;51.074;17.004;2024-01-06T08:46:29;5.68;;;4.30;;
39750;SDS011;37579;51.074;17.004;2024-01-06T08:48:56;5.47;;;4.50;;
39750;SDS011;37579;51.074;17.004;2024-01-06T08:51:22;5.90;;;4.53;;
39750;SDS011;37579;51.074;17.004;2024-01-06T08:53:49;6.70;;;4.30;;
39750;SDS011;37579;51.074;17.004;2024-01-06T08:56:15;6.55;;;4.50;;
39750;SDS011;37579;51.074;17.004;2024-01-06T08:58:43;6.40;;;4.68;;
39750;SDS011;37579;51.074;17.004;2024-01-06T09:01:09;4.97;;;4.28;;
39750;SDS011;37579;51.074;17.004;2024-01-06T09:03:35;6.55;;;4.50;;
39750;SDS011;37579;51.074;17.004;2024-01-06T09:06:00;6.07;;;4.57;;
39750;SDS011;37579;51.074;17.004;2024-01-06T09:08:26;6.07;;;4.40;;
39750;SDS011;37579;51.074;17.004;2024-01-06T09:10:53;6.53;;;4.57;;
39750;SDS011;37579;51.074;17.004;2024-01-06T09:13:22;5.85;;;4.47;;
39750;SDS011;37579;51.074;17.004;2024-01-06T09:15:49;6.43;;;4.45;;
39750;SDS011;37579;51.074;17.004;2024-01-06T09:18:16;5.45;;;4.60;;
39750;SDS011;37579;51.074;17.004;2024-01-06T09:20:42;6.35;;;5.03;;
39750;SDS011;37579;51.074;17.004;2024-01-06T09:23:07;5.32;;;4.35;;
39750;SDS011;37579;51.074;17.004;2024-01-06T09:25:33;6.28;;;4.47;;
39750;SDS011;37579;51.074;17.004;2024-01-06T09:27:59;6.57;;;4.57;;
39750;SDS011;37579;51.074;17.004;2024-01-06T09:30:25;6.85;;;4.57;;
39750;SDS011;37579;51.074;17.004;2024-01-06T09:32:52;5.22;;;4.13;;
39750;SDS011;37579;51.074;17.004;2024-01-06T09:35:18;7.57;;;4.47;;
39750;SDS011;37579;51.074;17.004;2024-01-06T09:37:43;5.50;;;4.20;;
39750;SDS011;37579;51.074;17.004;2024-01-06T09:40:11;6.75;;;4.53;;
39750;SDS011;37579;51.074;17.004;2024-01-06T09:42:40;7.30;;;4.72;;
39750;SDS011;37579;51.074;17.004;2024-01-06T09:45:06;5.85;;;4.47;;
39750;SDS011;37579;51.074;17.004;2024-01-06T09:47:34;5.82;;;4.22;;
39750;SDS011;37579;51.074;17.004;2024-01-06T09:50:01;6.55;;;4.50;;
39750;SDS011;37579;51.074;17.004;2024-01-06T09:52:29;7.65;;;4.57;;
39750;SDS011;37579;51.074;17.004;2024-01-06T09:54:58;7.72;;;4.40;;
39750;SDS011;37579;51.074;17.004;2024-01-06T09:57:25;5.13;;;4.10;;
39750;SDS011;37579;51.074;17.004;2024-01-06T09:59:51;6.43;;;4.57;;
39750;SDS011;37579;51.074;17.004;2024-01-06T10:02:18;6.22;;;4.70;;
39750;SDS011;37579;51.074;17.004;2024-01-06T10:04:45;6.10;;;4.28;;
39750;SDS011;37579;51.074;17.004;2024-01-06T10:07:11;5.90;;;4.20;;
39750;SDS011;37579;51.074;17.004;2024-01-06T10:09:40;5.85;;;4.55;;
39750;SDS011;37579;51.074;17.004;2024-01-06T10:12:07;8.90;;;5.05;;
39750;SDS011;37579;51.074;17.004;2024-01-06T10:14:33;8.82;;;5.88;;
39750;SDS011;37579;51.074;17.004;2024-01-06T10:16:59;8.90;;;6.50;;
39750;SDS011;37579;51.074;17.004;2024-01-06T10:19:25;8.88;;;7.25;;
39750;SDS011;37579;51.074;17.004;2024-01-06T10:21:51;11.23;;;7.13;;
39750;SDS011;37579;51.074;17.004;2024-01-06T10:24:17;10.45;;;7.75;;
39750;SDS011;37579;51.074;17.004;2024-01-06T10:26:46;11.75;;;7.72;;
39750;SDS011;37579;51.074;17.004;2024-01-06T10:29:15;11.85;;;8.50;;
39750;SDS011;37579;51.074;17.004;2024-01-06T10:31:41;11.18;;;8.73;;
39750;SDS011;37579;51.074;17.004;2024-01-06T10:34:07;11.38;;;8.80;;
39750;SDS011;37579;51.074;17.004;2024-01-06T10:36:33;11.90;;;8.02;;
39750;SDS011;37579;51.074;17.004;2024-01-06T10:38:59;10.68;;;8.65;;
39750;SDS011;37579;51.074;17.004;2024-01-06T10:41:26;10.90;;;8.60;;
39750;SDS011;37579;51.074;17.004;2024-01-06T10:43:54;12.35;;;9.07;;
39750;SDS011;37579;51.074;17.004;2024-01-06T10:46:21;11.70;;;8.30;;
39750;SDS011;37579;51.074;17.004;2024-01-06T10:48:49;11.82;;;8.32;;
39750;SDS011;37579;51.074;17.004;2024-01-06T10:51:17;11.00;;;8.18;;
39750;SDS011;37579;51.074;17.004;2024-01-06T10:53:44;10.00;;;8.13;;
39750;SDS011;37579;51.074;17.004;2024-01-06T10:56:09;8.93;;;7.28;;
39750;SDS011;37579;51.074;17.004;2024-01-06T10:58:36;11.70;;;8.27;;
39750;SDS011;37579;51.074;17.004;2024-01-06T11:01:08;10.30;;;7.40;;
39750;SDS011;37579;51.074;17.004;2024-01-06T11:03:36;9.77;;;7.43;;
39750;SDS011;37579;51.074;17.004;2024-01-06T11:06:06;10.02;;;7.03;;
39750;SDS011;37579;51.074;17.004;2024-01-06T11:08:38;10.70;;;7.20;;
39750;SDS011;37579;51.074;17.004;2024-01-06T11:11:20;14.02;;;7.10;;
39750;SDS011;37579;51.074;17.004;2024-01-06T11:13:49;9.15;;;7.05;;
39750;SDS011;37579;51.074;17.004;2024-01-06T11:16:48;12.32;;;7.25;;
39750;SDS011;37579;51.074;17.004;2024-01-06T11:24:54;8.95;;;6.93;;
39750;SDS011;37579;51.074;17.004;2024-01-06T11:27:22;12.15;;;7.13;;
39750;SDS011;37579;51.074;17.004;2024-01-06T11:29:54;9.40;;;6.75;;
39750;SDS011;37579;51.074;17.004;2024-01-06T11:32:25;10.20;;;6.80;;
39750;SDS011;37579;51.074;17.004;2024-01-06T11:34:53;8.50;;;5.68;;
39750;SDS011;37579;51.074;17.004;2024-01-06T11:37:25;10.43;;;6.75;;
39750;SDS011;37579;51.074;17.004;2024-01-06T11:40:02;9.20;;;6.28;;
39750;SDS011;37579;51.074;17.004;2024-01-06T11:42:31;9.38;;;5.90;;
39750;SDS011;37579;51.074;17.004;2024-01-06T11:45:00;8.50;;;5.95;;
39750;SDS011;37579;51.074;17.004;2024-01-06T11:47:27;10.18;;;6.05;;
39750;SDS011;37579;51.074;17.004;2024-01-06T11:49:55;9.40;;;6.03;;
39750;SDS011;37579;51.074;17.004;2024-01-06T11:52:24;9.45;;;6.80;;
39750;SDS011;37579;51.074;17.004;2024-01-06T11:54:51;11.68;;;6.05;;
39750;SDS011;37579;51.074;17.004;2024-01-06T11:57:19;8.90;;;6.20;;
39750;SDS011;37579;51.074;17.004;2024-01-06T11:59:45;7.40;;;6.05;;
39750;SDS011;37579;51.074;17.004;2024-01-06T12:02:11;9.57;;;6.40;;
39750;SDS011;37579;51.074;17.004;2024-01-06T12:04:41;14.25;;;7.97;;
39750;SDS011;37579;51.074;17.004;2024-01-06T12:07:08;14.05;;;9.60;;
39750;SDS011;37579;51.074;17.004;2024-01-06T12:09:34;22.13;;;16.55;;
39750;SDS011;37579;51.074;17.004;2024-01-06T12:12:03;18.75;;;12.70;;
39750;SDS011;37579;51.074;17.004;2024-01-06T12:14:32;16.90;;;10.67;;
39750;SDS011;37579;51.074;17.004;2024-01-06T12:16:59;17.80;;;10.48;;
39750;SDS011;37579;51.074;17.004;2024-01-06T12:19:31;33.42;;;15.85;;
39750;SDS011;37579;51.074;17.004;2024-01-06T12:21:58;24.38;;;12.95;;
39750;SDS011;37579;51.074;17.004;2024-01-06T12:24:26;29.58;;;14.38;;
39750;SDS011;37579;51.074;17.004;2024-01-06T12:26:55;28.45;;;14.23;;
39750;SDS011;37579;51.074;17.004;2024-01-06T12:29:22;28.80;;;14.73;;
39750;SDS011;37579;51.074;17.004;2024-01-06T12:31:51;29.08;;;14.57;;
39750;SDS011;37579;51.074;17.004;2024-01-06T12:34:17;30.85;;;15.38;;
39750;SDS011;37579;51.074;17.004;2024-01-06T12:36:43;27.73;;;13.50;;
39750;SDS011;37579;51.074;17.004;2024-01-06T12:39:12;23.20;;;13.50;;
39750;SDS011;37579;51.074;17.004;2024-01-06T12:41:41;26.77;;;13.32;;
39750;SDS011;37579;51.074;17.004;2024-01-06T12:44:08;28.70;;;14.45;;
39750;SDS011;37579;51.074;17.004;2024-01-06T12:46:34;27.92;;;14.32;;
39750;SDS011;37579;51.074;17.004;2024-01-06T12:49:00;24.95;;;14.25;;
39750;SDS011;37579;51.074;17.004;2024-01-06T12:51:27;22.48;;;13.27;;
39750;SDS011;37579;51.074;17.004;2024-01-06T12:53:53;22.48;;;12.82;;
39750;SDS011;37579;51.074;17.004;2024-01-06T12:56:19;23.58;;;13.80;;
39750;SDS011;37579;51.074;17.004;2024-01-06T12:58:45;23.70;;;13.05;;
39750;SDS011;37579;51.074;17.004;2024-01-06T13:01:11;20.23;;;13.20;;
39750;SDS011;37579;51.074;17.004;2024-01-06T13:03:37;22.42;;;13.48;;
39750;SDS011;37579;51.074;17.004;2024-01-06T13:06:03;22.35;;;13.15;;
39750;SDS011;37579;51.074;17.004;2024-01-06T13:08:29;23.27;;;13.27;;
39750;SDS011;37579;51.074;17.004;2024-01-06T13:10:55;23.98;;;14.15;;
39750;SDS011;37579;51.074;17.004;2024-01-06T13:13:21;18.88;;;12.40;;
39750;SDS011;37579;51.074;17.004;2024-01-06T13:15:47;19.65;;;12.40;;
39750;SDS011;37579;51.074;17.004;2024-01-06T13:18:13;19.05;;;12.85;;
39750;SDS011;37579;51.074;17.004;2024-01-06T13:20:39;21.65;;;12.95;;
39750;SDS011;37579;51.074;17.004;2024-01-06T13:23:07;16.90;;;12.73;;
39750;SDS011;37579;51.074;17.004;2024-01-06T13:25:34;18.90;;;13.00;;
39750;SDS011;37579;51.074;17.004;2024-01-06T13:28:00;17.48;;;12.10;;
39750;SDS011;37579;51.074;17.004;2024-01-06T13:30:26;17.38;;;12.48;;
39750;SDS011;37579;51.074;17.004;2024-01-06T13:32:52;22.70;;;13.27;;
39750;SDS011;37579;51.074;17.004;2024-01-06T13:35:19;23.80;;;13.90;;
39750;SDS011;37579;51.074;17.004;2024-01-06T13:37:46;23.75;;;13.27;;
39750;SDS011;37579;51.074;17.004;2024-01-06T13:40:13;24.95;;;13.50;;
39750;SDS011;37579;51.074;17.004;2024-01-06T13:42:39;20.80;;;12.70;;
39750;SDS011;37579;51.074;17.004;2024-01-06T13:45:05;21.67;;;12.80;;
39750;SDS011;37579;51.074;17.004;2024-01-06T13:47:32;19.65;;;12.07;;
39750;SDS011;37579;51.074;17.004;2024-01-06T13:49:58;20.02;;;12.40;;
39750;SDS011;37579;51.074;17.004;2024-01-06T13:52:24;21.05;;;12.18;;
39750;SDS011;37579;51.074;17.004;2024-01-06T13:54:50;19.95;;;12.77;;
39750;SDS011;37579;51.074;17.004;2024-01-06T13:57:16;24.02;;;12.93;;
39750;SDS011;37579;51.074;17.004;2024-01-06T13:59:42;22.52;;;12.70;;
39750;SDS011;37579;51.074;17.004;2024-01-06T14:02:10;20.08;;;12.82;;
39750;SDS011;37579;51.074;17.004;2024-01-06T14:04:36;19.88;;;13.05;;
39750;SDS011;37579;51.074;17.004;2024-01-06T14:07:02;19.67;;;13.25;;
39750;SDS011;37579;51.074;17.004;2024-01-06T14:09:29;22.10;;;12.60;;
39750;SDS011;37579;51.074;17.004;2024-01-06T14:11:55;17.50;;;12.20;;
39750;SDS011;37579;51.074;17.004;2024-01-06T14:14:21;20.75;;;12.75;;
39750;SDS011;37579;51.074;17.004;2024-01-06T14:16:47;18.58;;;12.05;;
39750;SDS011;37579;51.074;17.004;2024-01-06T14:19:12;20.88;;;13.80;;
39750;SDS011;37579;51.074;17.004;2024-01-06T14:21:39;21.48;;;13.18;;
39750;SDS011;37579;51.074;17.004;2024-01-06T14:24:05;19.13;;;13.07;;
39750;SDS011;37579;51.074;17.004;2024-01-06T14:26:32;17.75;;;12.73;;
39750;SDS011;37579;51.074;17.004;2024-01-06T14:28:58;20.00;;;13.73;;
39750;SDS011;37579;51.074;17.004;2024-01-06T14:31:24;18.98;;;13.38;;